Time;durP1;ratioP1;P1;durP2;ratioP2;P2;SDS_P1;SDS_P2;PMS_P1;PMS_P2;Temp;Humidity;BMP_temperature;BMP_pressure;BME280_temperature;BME280_humidity;BME280_pressure;Samples;Min_cycle;Max_cycle;Signal;HPM_P1;HPM_P2
2022/04/01 00:01:19;;;;;;;1.40;0.45;;;11.00;57.20;;;;;;5014481;28;20050;-74
2022/04/01 00:03:45;;;;;;;2.90;0.45;;;11.10;57.20;;;;;;4981352;28;20050;-74
2022/04/01 00:06:11;;;;;;;1.13;0.40;;;11.00;56.80;;;;;;4978706;28;20046;-73
2022/04/01 00:08:36;;;;;;;3.30;0.70;;;11.10;57.30;;;;;;4995611;28;20057;-74
2022/04/01 00:11:02;;;;;;;1.75;0.32;;;11.00;56.90;;;;;;4995561;28;20046;-73
2022/04/01 00:13:28;;;;;;;1.08;0.30;;;11.00;56.90;;;;;;4995813;28;20049;-75
2022/04/01 00:15:53;;;;;;;1.85;0.60;;;11.00;56.70;;;;;;4978337;28;20134;-74
2022/04/01 00:18:19;;;;;;;1.60;0.47;;;11.00;56.80;;;;;;4996012;28;20141;-73
2022/04/01 00:20:45;;;;;;;1.00;0.30;;;10.90;56.80;;;;;;4995600;28;20049;-74
2022/04/01 00:23:12;;;;;;;2.38;0.40;;;10.90;56.80;;;;;;4978294;28;20061;-75
2022/04/01 00:25:39;;;;;;;2.25;0.45;;;10.80;56.50;;;;;;4995643;28;20054;-75
2022/04/01 00:28:05;;;;;;;2.25;0.43;;;10.80;56.90;;;;;;5013457;28;20050;-74
2022/04/01 00:30:33;;;;;;;1.35;0.30;;;10.80;56.90;;;;;;5015552;28;20096;-73
2022/04/01 00:32:59;;;;;;;3.13;0.40;;;10.80;57.30;;;;;;5014806;28;20117;-75
2022/04/01 00:35:25;;;;;;;2.70;0.50;;;10.70;57.10;;;;;;5014803;28;20053;-73
2022/04/01 00:37:52;;;;;;;1.60;0.40;;;10.80;57.00;;;;;;5015109;28;20045;-74
2022/04/01 00:40:18;;;;;;;0.55;0.28;;;10.70;57.00;;;;;;4997544;28;20060;-74
2022/04/01 00:42:45;;;;;;;1.33;0.50;;;10.80;57.00;;;;;;5014809;28;20073;-74
2022/04/01 00:45:11;;;;;;;0.98;0.40;;;10.80;56.60;;;;;;5014838;28;20421;-74
2022/04/01 00:47:38;;;;;;;1.40;0.40;;;10.80;56.80;;;;;;4998096;28;20049;-73
2022/04/01 00:50:05;;;;;;;2.20;0.80;;;10.70;56.60;;;;;;4999234;28;20122;-74
2022/04/01 00:52:32;;;;;;;1.98;0.50;;;10.80;56.60;;;;;;5019153;28;20061;-74
2022/04/01 00:54:59;;;;;;;1.25;0.60;;;10.70;56.70;;;;;;5001450;28;20046;-74
2022/04/01 00:57:26;;;;;;;1.42;0.30;;;10.70;56.60;;;;;;5018315;28;20108;-75
2022/04/01 00:59:54;;;;;;;2.33;0.40;;;10.70;56.80;;;;;;5000891;28;20140;-74
2022/04/01 01:02:20;;;;;;;1.83;0.50;;;10.70;56.80;;;;;;5004310;28;20061;-74
2022/04/01 01:04:46;;;;;;;1.58;0.30;;;10.70;56.70;;;;;;4981519;28;20454;-73
2022/04/01 01:07:13;;;;;;;2.50;0.57;;;10.70;56.60;;;;;;4981723;28;20385;-73
2022/04/01 01:09:40;;;;;;;2.42;0.50;;;10.60;56.70;;;;;;4981641;28;20050;-74
2022/04/01 01:12:06;;;;;;;1.13;0.20;;;10.60;56.80;;;;;;4998211;28;20430;-74
2022/04/01 01:14:34;;;;;;;1.95;0.50;;;10.60;56.70;;;;;;4970771;28;20418;-74
2022/04/01 01:17:02;;;;;;;1.30;0.50;;;10.60;56.80;;;;;;5000947;28;20049;-74
2022/04/01 01:19:32;;;;;;;1.88;0.65;;;10.60;57.30;;;;;;5000926;28;20060;-73
2022/04/01 01:21:58;;;;;;;1.90;0.40;;;10.60;57.00;;;;;;5018190;28;20060;-74
2022/04/01 01:24:37;;;;;;;3.45;0.73;;;10.50;57.30;;;;;;5018554;28;20372;-74
2022/04/01 01:27:07;;;;;;;2.17;0.43;;;10.60;57.10;;;;;;5000682;28;20445;-73
2022/04/01 01:29:37;;;;;;;1.65;0.50;;;10.60;56.90;;;;;;5018091;28;20088;-74
2022/04/01 01:32:06;;;;;;;2.33;0.80;;;10.50;56.80;;;;;;5017005;28;20058;-73
2022/04/01 01:34:32;;;;;;;2.63;0.57;;;10.50;56.70;;;;;;5017984;28;20081;-74
2022/04/01 01:36:59;;;;;;;1.60;0.43;;;10.50;56.80;;;;;;5000489;28;20050;-73
2022/04/01 01:39:25;;;;;;;2.85;0.88;;;10.50;57.20;;;;;;5017899;28;20057;-73
2022/04/01 01:41:53;;;;;;;1.40;0.38;;;10.60;56.70;;;;;;5017569;28;20370;-74
2022/04/01 01:44:20;;;;;;;1.55;0.40;;;10.60;56.90;;;;;;4997659;28;20133;-74
2022/04/01 01:46:46;;;;;;;1.52;0.40;;;10.50;56.90;;;;;;5000650;28;20046;-73
2022/04/01 01:49:12;;;;;;;2.00;0.43;;;10.60;56.70;;;;;;5017433;28;20053;-74
2022/04/01 01:54:43;;;;;;;1.55;0.45;;;10.60;56.50;;;;;;5017560;28;20041;-75
2022/04/01 01:57:10;;;;;;;1.92;0.40;;;10.60;56.80;;;;;;5017718;28;20343;-75
2022/04/01 01:59:36;;;;;;;4.40;0.68;;;10.70;56.60;;;;;;5000352;28;20046;-75
2022/04/01 02:02:05;;;;;;;1.17;0.32;;;10.70;56.60;;;;;;4995464;28;20162;-73
2022/04/01 02:04:35;;;;;;;1.48;0.45;;;10.70;56.70;;;;;;4994673;28;20050;-74
2022/04/01 02:07:05;;;;;;;4.38;0.88;;;10.70;56.40;;;;;;4980494;28;20046;-74
2022/04/01 02:09:31;;;;;;;1.90;0.60;;;10.60;57.00;;;;;;4980827;28;20116;-74
2022/04/01 02:11:57;;;;;;;2.38;0.70;;;10.70;57.60;;;;;;4994536;28;20462;-74
2022/04/01 02:14:23;;;;;;;4.50;0.57;;;10.60;56.90;;;;;;4997456;28;20097;-73
2022/04/01 02:16:49;;;;;;;3.13;0.50;;;10.60;56.90;;;;;;4997227;28;20540;-73
2022/04/01 02:19:21;;;;;;;2.60;0.50;;;10.50;56.80;;;;;;4997832;28;20078;-73
2022/04/01 02:21:51;;;;;;;3.65;0.70;;;10.60;57.00;;;;;;4997469;28;20425;-73
2022/04/01 02:24:21;;;;;;;2.33;0.70;;;10.50;57.50;;;;;;4997574;28;20054;-74
2022/04/01 02:26:47;;;;;;;2.45;0.63;;;10.50;57.00;;;;;;4997315;28;20484;-73
2022/04/01 02:29:15;;;;;;;3.63;0.65;;;10.50;56.90;;;;;;4997031;28;20050;-74
2022/04/01 02:31:42;;;;;;;3.88;1.23;;;10.40;57.20;;;;;;4996404;28;20502;-74
2022/04/01 02:34:08;;;;;;;1.40;0.40;;;10.40;57.20;;;;;;4996885;28;20335;-73
2022/04/01 02:36:33;;;;;;;1.38;0.30;;;10.40;56.90;;;;;;4979946;28;20428;-73
2022/04/01 02:39:01;;;;;;;2.83;0.40;;;10.40;57.00;;;;;;4980150;28;20137;-73
2022/04/01 02:41:27;;;;;;;4.20;0.73;;;10.40;57.00;;;;;;4996675;28;20181;-73
2022/04/01 02:44:08;;;;;;;4.35;0.90;;;10.30;56.90;;;;;;4997135;28;20065;-74
2022/04/01 02:46:42;;;;;;;1.92;0.60;;;10.40;57.10;;;;;;4997211;28;20050;-74
2022/04/01 02:49:09;;;;;;;3.70;0.88;;;10.40;56.20;;;;;;4996980;28;20465;-74
2022/04/01 02:51:36;;;;;;;3.97;0.75;;;10.40;56.70;;;;;;4996948;28;20133;-75
2022/04/01 02:54:04;;;;;;;2.38;0.40;;;10.40;56.70;;;;;;4996962;28;20057;-72
2022/04/01 02:56:32;;;;;;;3.67;0.45;;;10.30;56.60;;;;;;4979441;28;20058;-73
2022/04/01 02:58:59;;;;;;;4.95;0.52;;;10.40;56.70;;;;;;4979283;28;20042;-73
2022/04/01 03:01:25;;;;;;;1.75;0.50;;;10.40;56.90;;;;;;4996176;28;20057;-73
2022/04/01 03:03:51;;;;;;;2.63;0.65;;;10.40;56.90;;;;;;5011467;28;20373;-74
2022/04/01 03:06:17;;;;;;;1.45;0.60;;;10.50;56.60;;;;;;4999084;28;20053;-74
2022/04/01 03:08:43;;;;;;;1.98;0.45;;;10.50;56.50;;;;;;5016738;28;20111;-73
2022/04/01 03:11:09;;;;;;;3.45;0.70;;;10.50;55.90;;;;;;5015859;28;20105;-72
2022/04/01 03:13:35;;;;;;;3.60;0.50;;;10.50;56.00;;;;;;5014718;28;20050;-73
2022/04/01 03:16:02;;;;;;;2.67;0.60;;;10.60;56.20;;;;;;4996012;28;20046;-72
2022/04/01 03:18:28;;;;;;;1.70;0.80;;;10.50;56.10;;;;;;4996999;28;20065;-73
2022/04/01 03:20:53;;;;;;;4.15;0.90;;;10.60;56.40;;;;;;4996365;28;20042;-73
2022/04/01 03:23:19;;;;;;;2.72;0.43;;;10.60;56.50;;;;;;4996518;28;20088;-72
2022/04/01 03:25:46;;;;;;;1.15;0.30;;;10.60;56.10;;;;;;4996267;28;20039;-73
2022/04/01 03:28:13;;;;;;;0.90;0.45;;;10.50;56.00;;;;;;4996134;28;20050;-73
2022/04/01 03:30:38;;;;;;;1.65;0.47;;;10.50;56.20;;;;;;4997505;28;20126;-73
2022/04/01 03:33:05;;;;;;;1.63;0.65;;;10.50;56.50;;;;;;5009858;28;20117;-72
2022/04/01 03:35:32;;;;;;;2.65;0.60;;;10.50;56.30;;;;;;4996683;28;20050;-73
2022/04/01 03:37:59;;;;;;;1.05;0.30;;;10.60;56.20;;;;;;4996004;28;20038;-73
2022/04/01 03:40:29;;;;;;;2.38;0.30;;;10.50;56.20;;;;;;4962857;28;20054;-74
2022/04/01 03:42:55;;;;;;;3.20;0.60;;;10.50;56.30;;;;;;4995496;28;20060;-72
2022/04/01 03:45:22;;;;;;;2.67;0.50;;;10.50;56.50;;;;;;4995931;28;20054;-73
2022/04/01 03:47:59;;;;;;;2.28;0.50;;;10.50;56.30;;;;;;4996081;28;20050;-73
2022/04/01 03:50:29;;;;;;;2.47;0.35;;;10.50;56.00;;;;;;4995700;28;20042;-73
2022/04/01 03:53:04;;;;;;;3.50;0.73;;;10.50;56.20;;;;;;4978543;28;20054;-73
2022/04/01 03:55:32;;;;;;;3.05;0.75;;;10.50;55.90;;;;;;4978681;28;20053;-74
2022/04/01 03:58:05;;;;;;;1.50;0.50;;;10.50;55.50;;;;;;4997575;28;20051;-73
2022/04/01 04:00:32;;;;;;;2.30;0.40;;;10.40;56.10;;;;;;5011950;28;20046;-73
2022/04/01 04:02:59;;;;;;;2.33;0.70;;;10.40;55.90;;;;;;5010171;28;20038;-73
2022/04/01 04:05:27;;;;;;;2.20;0.68;;;10.40;56.20;;;;;;5015247;28;20075;-73
2022/04/01 04:07:55;;;;;;;1.00;0.47;;;10.30;56.30;;;;;;4998638;28;20057;-74
2022/04/01 04:10:21;;;;;;;2.63;0.63;;;10.30;56.50;;;;;;5015430;28;20056;-74
2022/04/01 04:12:48;;;;;;;2.40;0.40;;;10.40;56.60;;;;;;4998258;28;20045;-73
2022/04/01 04:15:15;;;;;;;2.08;0.50;;;10.40;56.60;;;;;;5013567;28;20053;-74
2022/04/01 04:17:45;;;;;;;1.70;0.52;;;10.30;56.60;;;;;;5015336;28;20386;-72
2022/04/01 04:20:32;;;;;;;2.80;0.50;;;10.30;56.40;;;;;;5015350;28;20049;-73
2022/04/01 04:23:19;;;;;;;3.40;0.60;;;10.30;56.70;;;;;;4964296;28;20062;-74
2022/04/01 04:26:15;;;;;;;4.10;0.68;;;10.30;57.00;;;;;;4999449;28;20046;-73
2022/04/01 04:28:48;;;;;;;4.55;0.80;;;10.30;57.00;;;;;;4982148;28;20081;-76
2022/04/01 04:31:14;;;;;;;2.60;0.60;;;10.50;58.30;;;;;;4998895;28;20097;-78
2022/04/01 04:33:45;;;;;;;3.70;0.40;;;10.70;58.00;;;;;;4965904;28;20132;-78
2022/04/01 04:36:15;;;;;;;4.18;0.82;;;10.90;57.40;;;;;;4999306;28;20038;-77
2022/04/01 04:38:45;;;;;;;5.35;0.82;;;11.10;56.60;;;;;;4965917;28;20054;-79
2022/04/01 04:41:11;;;;;;;5.22;1.02;;;11.20;55.80;;;;;;4998876;28;20105;-71
2022/04/01 04:43:46;;;;;;;4.90;1.35;;;11.30;55.30;;;;;;4999071;28;20069;-77
2022/04/01 04:46:13;;;;;;;6.00;0.95;;;11.30;55.10;;;;;;4965862;28;20065;-75
2022/04/01 04:48:41;;;;;;;1.05;0.50;;;11.40;55.60;;;;;;4998958;28;20061;-76
2022/04/01 04:51:08;;;;;;;3.05;0.80;;;11.50;55.20;;;;;;4965436;28;20469;-75
2022/04/01 04:53:34;;;;;;;5.43;0.90;;;11.70;55.30;;;;;;4985036;28;20065;-74
2022/04/01 04:56:04;;;;;;;6.30;1.13;;;11.90;55.50;;;;;;5018063;28;20073;-76
2022/04/01 04:58:39;;;;;;;3.15;0.88;;;12.20;55.70;;;;;;5015467;28;20048;-77
2022/04/01 05:01:38;;;;;;;2.50;0.50;;;12.40;56.00;;;;;;4997599;28;20050;-78
2022/04/01 05:04:25;;;;;;;4.93;0.40;;;12.80;56.30;;;;;;4965647;28;20058;-77
2022/04/01 05:07:19;;;;;;;3.08;0.60;;;13.10;56.10;;;;;;4998836;28;20050;-79
2022/04/01 05:10:07;;;;;;;;;;;13.30;55.90;;;;;;4990371;28;20050;-79
2022/04/01 05:13:08;;;;;;;5.85;0.80;;;13.60;55.80;;;;;;5002826;28;19969;-77
2022/04/01 05:15:37;;;;;;;4.25;0.70;;;13.80;55.00;;;;;;4999324;28;20060;-80
2022/04/01 05:18:22;;;;;;;3.50;0.93;;;13.90;55.00;;;;;;4981422;28;20426;-79
2022/04/01 05:21:02;;;;;;;4.18;0.98;;;14.10;55.10;;;;;;5001160;28;20053;-82
2022/04/01 05:23:54;;;;;;;2.50;0.57;;;14.20;55.10;;;;;;5017752;28;20349;-77
2022/04/01 05:26:25;;;;;;;2.25;0.60;;;14.30;54.90;;;;;;5017375;28;20046;-77
2022/04/01 05:28:57;;;;;;;3.63;0.60;;;13.90;48.90;;;;;;5018142;28;20045;-77
2022/04/01 05:31:34;;;;;;;3.28;0.70;;;14.10;54.70;;;;;;5000974;28;20046;-75
2022/04/01 05:34:13;;;;;;;4.50;0.60;;;14.20;55.20;;;;;;4984758;28;20527;-75
2022/04/01 05:36:40;;;;;;;5.53;0.70;;;14.40;55.10;;;;;;4999672;28;20084;-77
2022/04/01 05:39:06;;;;;;;3.47;0.60;;;14.50;55.10;;;;;;4999910;28;20052;-76
2022/04/01 05:41:32;;;;;;;6.60;0.82;;;14.60;54.90;;;;;;5017200;28;20053;-74
2022/04/01 05:43:58;;;;;;;3.40;0.60;;;14.70;54.70;;;;;;5000661;28;20442;-76
2022/04/01 05:46:25;;;;;;;3.80;0.88;;;14.80;54.50;;;;;;5016525;28;20052;-76
2022/04/01 05:48:54;;;;;;;4.40;0.82;;;14.90;54.50;;;;;;5006317;28;20080;-80
2022/04/01 05:51:20;;;;;;;3.30;0.68;;;14.90;53.90;;;;;;5016025;28;20046;-78
2022/04/01 05:53:47;;;;;;;5.10;0.70;;;15.00;54.10;;;;;;5000499;28;20406;-80
2022/04/01 05:56:15;;;;;;;3.17;0.52;;;15.10;53.90;;;;;;4999999;28;20081;-81
2022/04/01 05:58:44;;;;;;;3.05;0.50;;;15.20;54.20;;;;;;5000274;28;20038;-79
2022/04/01 06:01:37;;;;;;;6.13;1.00;;;15.20;54.40;;;;;;5014177;28;20125;-81
2022/04/01 06:04:27;;;;;;;7.78;1.80;;;15.30;53.50;;;;;;4991745;28;20061;-82
2022/04/01 06:07:23;;;;;;;12.25;1.63;;;15.40;54.60;;;;;;5004273;28;20033;-76
2022/04/01 06:10:05;;;;;;;9.88;1.27;;;15.50;54.80;;;;;;5017386;28;20045;-81
2022/04/01 06:13:06;;;;;;;6.47;0.90;;;15.60;54.60;;;;;;5001964;28;20041;-80
2022/04/01 06:15:37;;;;;;;7.15;1.10;;;15.60;54.40;;;;;;4999518;28;20049;-82
2022/04/01 06:18:19;;;;;;;7.72;1.15;;;15.70;54.20;;;;;;4983100;28;20034;-81
2022/04/01 06:20:47;;;;;;;5.28;0.80;;;15.70;53.90;;;;;;4983079;28;20138;-80
2022/04/01 06:23:16;;;;;;;9.13;1.20;;;15.80;53.90;;;;;;4983394;28;20053;-81
2022/04/01 06:25:51;;;;;;;5.97;0.70;;;15.80;53.70;;;;;;4983513;28;20038;-82
2022/04/01 06:28:24;;;;;;;3.75;0.63;;;15.90;53.60;;;;;;4999459;28;20104;-80
2022/04/01 06:30:52;;;;;;;5.22;0.60;;;15.90;53.50;;;;;;4999389;28;20045;-82
2022/04/01 06:33:36;;;;;;;9.90;1.45;;;15.90;53.40;;;;;;4999227;28;20053;-80
2022/04/01 06:36:06;;;;;;;;;;;16.00;53.30;;;;;;5016790;28;20042;-79
2022/04/01 06:38:38;;;;;;;3.17;0.55;;;16.10;53.70;;;;;;4983011;28;19960;-77
2022/04/01 06:41:19;;;;;;;4.90;0.80;;;16.10;53.10;;;;;;5016350;28;20153;-80
2022/04/01 06:43:47;;;;;;;5.97;1.13;;;16.20;52.40;;;;;;5015772;28;20119;-80
2022/04/01 06:46:13;;;;;;;4.15;1.30;;;16.30;51.90;;;;;;5016215;28;20129;-78
2022/04/01 06:48:40;;;;;;;10.95;0.90;;;16.30;51.60;;;;;;4997804;28;20057;-78
2022/04/01 06:51:08;;;;;;;7.78;1.00;;;16.40;51.70;;;;;;5005215;28;20046;-80
2022/04/01 06:53:37;;;;;;;10.60;1.30;;;16.40;52.40;;;;;;4999934;28;20365;-78
2022/04/01 06:56:03;;;;;;;8.60;1.05;;;16.40;51.80;;;;;;5015563;28;20140;-79
2022/04/01 06:58:30;;;;;;;9.18;0.88;;;16.50;51.80;;;;;;4999299;28;20200;-80
2022/04/01 07:00:56;;;;;;;8.50;0.80;;;16.50;51.70;;;;;;4998490;28;20049;-78
2022/04/01 07:03:22;;;;;;;6.80;1.10;;;16.70;51.60;;;;;;4999075;28;20054;-78
2022/04/01 07:05:48;;;;;;;3.95;1.10;;;16.70;51.60;;;;;;4999188;28;20052;-78
2022/04/01 07:08:16;;;;;;;8.30;0.88;;;16.70;51.60;;;;;;4983497;28;20446;-80
2022/04/01 07:10:42;;;;;;;3.25;0.73;;;16.80;51.60;;;;;;4996424;28;20046;-78
2022/04/01 07:13:10;;;;;;;5.63;0.60;;;16.70;51.50;;;;;;4996254;28;20331;-80
2022/04/01 07:15:36;;;;;;;3.72;0.73;;;16.70;51.60;;;;;;4979125;28;20116;-80
2022/04/01 07:18:02;;;;;;;1.92;0.50;;;16.80;51.50;;;;;;4996292;28;20137;-79
2022/04/01 07:24:40;;;;;;;;;;;;;;;;;;;;;
2022/04/01 07:27:18;;;;;;;6.18;0.57;;;16.70;51.50;;;;;;4978736;28;20134;-80
2022/04/01 07:29:44;;;;;;;4.88;0.60;;;16.80;51.70;;;;;;4995681;28;20125;-81
2022/04/01 07:35:02;;;;;;;11.52;1.08;;;16.70;51.90;;;;;;4979007;28;20054;-81
2022/04/01 07:37:41;;;;;;;4.07;0.70;;;16.60;52.10;;;;;;4988307;28;20038;-80
2022/04/01 07:40:09;;;;;;;4.15;0.63;;;16.50;52.20;;;;;;4982110;28;20045;-81
2022/04/01 07:42:35;;;;;;;4.60;0.38;;;16.40;52.40;;;;;;4981301;28;20057;-81
2022/04/01 07:45:03;;;;;;;4.20;0.52;;;16.40;52.50;;;;;;4992534;28;20057;-80
2022/04/01 07:47:29;;;;;;;4.05;0.73;;;16.30;52.60;;;;;;4963032;28;20125;-81
2022/04/01 07:49:57;;;;;;;2.85;0.50;;;16.20;52.80;;;;;;4959624;28;20137;-81
2022/04/01 07:52:58;;;;;;;2.38;0.30;;;16.20;53.60;;;;;;4962785;28;20042;-81
2022/04/01 07:55:27;;;;;;;2.63;0.55;;;16.10;52.60;;;;;;4962662;28;20139;-79
2022/04/01 07:57:53;;;;;;;3.03;0.40;;;16.00;52.80;;;;;;4978534;28;20046;-80
2022/04/01 08:00:19;;;;;;;3.13;0.50;;;15.80;51.70;;;;;;4962169;28;20477;-82
2022/04/01 08:02:46;;;;;;;3.97;0.60;;;15.80;52.90;;;;;;4974480;28;20068;-80
2022/04/01 08:05:12;;;;;;;4.82;0.73;;;15.70;53.20;;;;;;4962137;28;20080;-80
2022/04/01 08:07:38;;;;;;;5.47;0.50;;;15.70;53.30;;;;;;4978458;28;20078;-82
2022/04/01 08:10:05;;;;;;;1.50;0.60;;;15.60;53.40;;;;;;4962772;28;20042;-80
2022/04/01 08:12:35;;;;;;;5.07;0.93;;;15.50;53.40;;;;;;4963081;28;20081;-84
2022/04/01 08:15:02;;;;;;;1.40;0.32;;;15.50;53.50;;;;;;4946443;28;20049;-80
2022/04/01 08:17:29;;;;;;;2.40;0.57;;;15.50;53.70;;;;;;4977943;28;20061;-81
2022/04/01 08:19:55;;;;;;;1.42;0.60;;;15.40;53.60;;;;;;4976195;28;20121;-80
2022/04/01 08:22:20;;;;;;;1.40;0.40;;;15.30;53.70;;;;;;4994792;28;20114;-81
2022/04/01 08:24:46;;;;;;;2.67;0.40;;;15.30;53.90;;;;;;4961472;28;20039;-82
2022/04/01 08:27:14;;;;;;;2.45;0.45;;;15.30;53.90;;;;;;4978351;28;20046;-82
2022/04/01 08:29:41;;;;;;;2.03;0.28;;;15.30;54.00;;;;;;4978238;28;20494;-79
2022/04/01 08:32:07;;;;;;;3.33;0.90;;;15.20;54.10;;;;;;4962069;28;20462;-82
2022/04/01 08:34:33;;;;;;;1.70;0.30;;;15.20;54.10;;;;;;4978254;28;20050;-78
2022/04/01 08:36:59;;;;;;;3.60;0.70;;;15.20;54.20;;;;;;4962045;28;20042;-82
2022/04/01 08:39:25;;;;;;;3.55;0.40;;;15.10;54.20;;;;;;4978224;28;20125;-80
2022/04/01 08:41:51;;;;;;;3.67;0.40;;;15.10;54.30;;;;;;4978037;28;20197;-79
2022/04/01 08:44:17;;;;;;;0.75;0.40;;;15.00;54.20;;;;;;4976805;28;20077;-80
2022/04/01 08:46:43;;;;;;;3.78;0.52;;;15.10;54.40;;;;;;4994126;28;20047;-82
2022/04/01 08:49:09;;;;;;;3.60;0.43;;;15.00;54.50;;;;;;4977773;28;20136;-78
2022/04/01 08:51:35;;;;;;;2.05;0.45;;;14.90;54.40;;;;;;4961854;28;20162;-79
2022/04/01 08:54:02;;;;;;;3.10;0.50;;;14.90;54.50;;;;;;4978302;28;20049;-82
2022/04/01 08:56:28;;;;;;;1.77;0.30;;;14.90;54.60;;;;;;4995885;28;20050;-79
2022/04/01 08:58:54;;;;;;;2.10;0.60;;;14.90;54.70;;;;;;4977720;28;20061;-79
2022/04/01 09:01:19;;;;;;;2.88;0.40;;;14.80;54.70;;;;;;4996318;28;20436;-79
2022/04/01 09:03:45;;;;;;;1.10;0.40;;;14.80;54.80;;;;;;4986841;28;20042;-79
2022/04/01 09:06:11;;;;;;;2.85;0.38;;;14.70;54.70;;;;;;4977845;28;20034;-81
2022/04/01 09:08:42;;;;;;;1.65;0.40;;;14.70;54.80;;;;;;4977672;28;20542;-79
2022/04/01 09:11:11;;;;;;;2.13;0.38;;;14.70;54.80;;;;;;4979101;28;20050;-80
2022/04/01 09:13:42;;;;;;;2.83;0.30;;;14.70;54.90;;;;;;4998740;28;20061;-82
2022/04/01 09:16:31;;;;;;;2.42;0.60;;;14.60;54.90;;;;;;4981823;28;20042;-80
2022/04/01 09:19:02;;;;;;;1.30;0.38;;;14.60;55.00;;;;;;4993658;28;20058;-79
2022/04/01 09:21:33;;;;;;;1.95;0.65;;;14.60;55.00;;;;;;4998605;28;20054;-79
2022/04/01 09:24:00;;;;;;;1.70;0.40;;;14.50;55.10;;;;;;4965497;28;20054;-80
2022/04/01 09:26:36;;;;;;;1.08;0.30;;;14.50;55.20;;;;;;4998289;28;20112;-81
2022/04/01 09:29:03;;;;;;;1.50;0.38;;;14.50;55.30;;;;;;4997970;28;20045;-79
2022/04/01 09:31:40;;;;;;;2.20;0.47;;;14.50;55.40;;;;;;4984974;28;20033;-79
2022/04/01 09:34:13;;;;;;;2.47;0.40;;;14.50;55.50;;;;;;5018100;28;20181;-78
2022/04/01 09:36:41;;;;;;;1.40;0.40;;;14.40;55.70;;;;;;4981946;28;20461;-80
2022/04/01 09:39:16;;;;;;;2.33;0.38;;;14.40;55.70;;;;;;4984554;28;20077;-81
2022/04/01 09:41:52;;;;;;;1.73;0.28;;;14.40;55.80;;;;;;5017396;28;20445;-82
2022/04/01 09:44:21;;;;;;;0.95;0.20;;;14.40;55.90;;;;;;5017684;28;20127;-79
2022/04/01 09:46:49;;;;;;;1.73;0.20;;;14.40;56.00;;;;;;5017659;28;20429;-78
2022/04/01 09:49:31;;;;;;;1.77;0.30;;;14.40;56.10;;;;;;5000620;28;20594;-79
2022/04/01 09:51:57;;;;;;;2.15;0.30;;;14.30;56.00;;;;;;5014720;28;20132;-78
2022/04/01 09:54:24;;;;;;;1.48;0.28;;;14.30;56.20;;;;;;4983959;28;20041;-80
2022/04/01 09:56:58;;;;;;;5.13;0.50;;;14.30;56.30;;;;;;5015171;28;20050;-80
2022/04/01 09:59:25;;;;;;;2.00;0.30;;;14.30;56.30;;;;;;4999348;28;20085;-80
2022/04/01 10:01:51;;;;;;;1.63;0.25;;;14.30;56.40;;;;;;5023663;28;20053;-79
2022/04/01 10:04:17;;;;;;;1.30;0.22;;;14.30;56.50;;;;;;5024269;28;20052;-78
2022/04/01 10:06:43;;;;;;;3.25;0.30;;;14.30;56.60;;;;;;5021512;28;20045;-79
2022/04/01 10:09:10;;;;;;;1.25;0.35;;;14.30;56.70;;;;;;5017274;28;20061;-81
2022/04/01 10:11:41;;;;;;;2.30;0.30;;;14.30;56.70;;;;;;5017957;28;20041;-79
2022/04/01 10:14:11;;;;;;;0.50;0.20;;;14.30;56.70;;;;;;5000376;28;20050;-79
2022/04/01 10:16:42;;;;;;;3.65;0.47;;;14.30;56.70;;;;;;5000035;28;20489;-77
2022/04/01 10:19:22;;;;;;;1.67;0.20;;;14.30;56.60;;;;;;4999582;28;20050;-78
2022/04/01 10:21:48;;;;;;;0.73;0.30;;;14.30;56.70;;;;;;5010780;28;20050;-82
2022/04/01 10:24:42;;;;;;;1.98;0.28;;;14.20;56.80;;;;;;4999518;28;20539;-77
2022/04/01 10:27:21;;;;;;;4.18;0.50;;;14.20;56.80;;;;;;5010624;28;20046;-73
2022/04/01 10:29:47;;;;;;;3.22;1.20;;;14.20;56.90;;;;;;5016431;28;20049;-78
2022/04/01 10:32:21;;;;;;;4.47;1.10;;;14.20;57.20;;;;;;5016597;28;20049;-78
2022/04/01 10:34:47;;;;;;;6.03;2.38;;;14.20;56.70;;;;;;4999775;28;20353;-79
2022/04/01 10:37:15;;;;;;;8.15;2.08;;;14.20;56.70;;;;;;5016544;28;20049;-81
2022/04/01 10:39:51;;;;;;;4.50;1.50;;;14.20;56.50;;;;;;4998896;28;20048;-81
2022/04/01 10:42:17;;;;;;;3.10;1.20;;;14.20;57.20;;;;;;4995772;28;20058;-82
2022/04/01 10:44:46;;;;;;;2.75;0.98;;;14.20;57.00;;;;;;4982497;28;20085;-80
2022/04/01 10:47:11;;;;;;;5.10;1.17;;;14.20;57.10;;;;;;5000946;28;20078;-81
2022/04/01 10:52:24;;;;;;;5.72;1.20;;;14.20;57.30;;;;;;5018921;28;20077;-77
2022/04/01 10:55:12;;;;;;;5.07;0.70;;;14.10;57.30;;;;;;5029259;28;20072;-80
2022/04/01 10:57:45;;;;;;;3.33;0.90;;;14.10;57.40;;;;;;5016364;28;20053;-83
2022/04/01 11:00:17;;;;;;;6.25;0.90;;;14.10;57.40;;;;;;4998690;28;20050;-80
2022/04/01 11:02:48;;;;;;;5.15;0.80;;;14.10;58.00;;;;;;5016400;28;20050;-80
2022/04/01 11:05:26;;;;;;;2.55;0.60;;;14.10;57.50;;;;;;4987847;28;20099;-79
2022/04/01 11:08:19;;;;;;;3.28;0.93;;;14.10;58.10;;;;;;4995730;28;20544;-77
2022/04/01 11:11:05;;;;;;;2.90;0.60;;;14.10;57.40;;;;;;4990150;28;20046;-79
2022/04/01 11:13:31;;;;;;;2.40;0.63;;;14.10;58.00;;;;;;4995908;28;20054;-80
2022/04/01 11:16:20;;;;;;;4.53;0.88;;;14.00;57.70;;;;;;4998469;28;20053;-80
2022/04/01 11:19:18;;;;;;;4.25;0.80;;;14.10;57.50;;;;;;5015223;28;20050;-77
2022/04/01 11:21:46;;;;;;;2.65;0.60;;;14.00;57.50;;;;;;5014046;28;20042;-80
2022/04/01 11:24:34;;;;;;;3.10;0.60;;;14.00;57.80;;;;;;5015956;28;20046;-82
2022/04/01 11:27:20;;;;;;;3.83;0.88;;;14.00;57.50;;;;;;5015585;28;20054;-81
2022/04/01 11:30:13;;;;;;;9.68;1.23;;;14.00;57.50;;;;;;5016035;28;20061;-81
2022/04/01 11:32:41;;;;;;;9.40;0.98;;;14.10;56.20;;;;;;4998579;28;20054;-76
2022/04/01 11:35:09;;;;;;;4.53;0.82;;;14.00;55.30;;;;;;5027165;28;20037;-79
2022/04/01 11:37:40;;;;;;;2.92;0.85;;;14.00;54.90;;;;;;5035626;28;20041;-80
2022/04/01 11:40:14;;;;;;;6.05;0.90;;;14.00;54.80;;;;;;5018315;28;20041;-80
2022/04/01 11:43:02;;;;;;;4.82;0.85;;;14.00;54.90;;;;;;5001338;28;20052;-79
2022/04/01 11:45:30;;;;;;;5.88;0.90;;;14.00;54.90;;;;;;5001293;28;20053;-80
2022/04/01 11:47:56;;;;;;;4.45;0.60;;;13.90;54.80;;;;;;5017812;28;20037;-80
2022/04/01 11:50:23;;;;;;;4.97;0.50;;;14.00;54.80;;;;;;5017403;28;20092;-81
2022/04/01 11:52:55;;;;;;;2.85;0.40;;;13.90;54.50;;;;;;5034948;28;20045;-81
2022/04/01 11:55:23;;;;;;;5.13;0.77;;;13.90;55.20;;;;;;5035437;28;20365;-81
2022/04/01 11:57:49;;;;;;;2.70;0.73;;;13.90;54.50;;;;;;5001315;28;20041;-80
2022/04/01 12:00:20;;;;;;;1.63;0.65;;;14.00;54.60;;;;;;5017838;28;20121;-80
2022/04/01 12:02:48;;;;;;;3.30;0.75;;;13.90;54.60;;;;;;5035187;28;20357;-82
2022/04/01 12:05:14;;;;;;;3.20;0.60;;;13.90;54.70;;;;;;5017566;28;20107;-79
2022/04/01 12:10:28;;;;;;;1.75;0.40;;;13.90;54.90;;;;;;5017071;28;20456;-79
2022/04/01 12:12:59;;;;;;;3.35;0.75;;;13.90;54.90;;;;;;5034819;28;20468;-80
2022/04/01 12:15:46;;;;;;;3.33;0.55;;;13.90;54.90;;;;;;4984411;28;20124;-80
2022/04/01 12:18:16;;;;;;;2.65;0.50;;;13.90;54.90;;;;;;5014990;28;20038;-80
2022/04/01 12:20:52;;;;;;;1.38;0.32;;;13.90;55.00;;;;;;4977149;28;20061;-81
2022/04/01 12:23:22;;;;;;;1.85;0.52;;;13.90;55.00;;;;;;4997680;28;20111;-79
2022/04/01 12:25:53;;;;;;;6.47;0.40;;;13.90;55.10;;;;;;5015083;28;20042;-80
2022/04/01 12:28:24;;;;;;;3.88;0.60;;;13.90;55.10;;;;;;4997427;28;20056;-79
2022/04/01 12:30:55;;;;;;;4.88;0.50;;;13.90;55.20;;;;;;4981178;28;20081;-79
2022/04/01 12:33:28;;;;;;;1.23;0.52;;;13.90;55.70;;;;;;4997799;28;20503;-79
2022/04/01 12:36:05;;;;;;;2.85;0.40;;;13.90;55.10;;;;;;5015243;28;20034;-81
2022/04/01 12:38:42;;;;;;;2.28;0.40;;;13.90;55.30;;;;;;4997330;28;20051;-75
2022/04/01 12:41:16;;;;;;;3.17;0.50;;;13.90;55.60;;;;;;4997150;28;20133;-76
2022/04/01 12:43:53;;;;;;;1.77;0.40;;;13.80;54.80;;;;;;5014815;28;20045;-77
2022/04/01 12:46:34;;;;;;;7.13;0.98;;;13.90;54.90;;;;;;5000983;28;20061;-77
2022/04/01 12:49:20;;;;;;;2.83;0.70;;;13.90;54.80;;;;;;5001478;28;20049;-77
2022/04/01 12:51:57;;;;;;;3.42;0.40;;;14.10;54.60;;;;;;5001371;28;20547;-80
2022/04/01 12:54:53;;;;;;;5.78;0.32;;;14.30;54.50;;;;;;5001691;28;20187;-76
2022/04/01 12:57:20;;;;;;;2.10;0.60;;;14.50;54.30;;;;;;5000839;28;20061;-79
2022/04/01 12:59:47;;;;;;;6.28;0.68;;;14.70;53.80;;;;;;5018359;28;20049;-79
2022/04/01 13:02:19;;;;;;;5.72;0.90;;;15.00;53.90;;;;;;5018794;28;20049;-78
2022/04/01 13:04:49;;;;;;;3.67;0.40;;;15.10;53.90;;;;;;5018209;28;20053;-77
2022/04/01 13:07:32;;;;;;;5.15;0.75;;;15.10;52.80;;;;;;5018268;28;20038;-79
2022/04/01 13:10:06;;;;;;;5.18;0.45;;;14.80;54.40;;;;;;5028396;28;20441;-79
2022/04/01 13:12:32;;;;;;;2.33;0.32;;;14.90;54.80;;;;;;5020422;28;20459;-80
2022/04/01 13:15:09;;;;;;;5.30;0.50;;;15.10;54.60;;;;;;5037916;28;20037;-78
2022/04/01 13:17:49;;;;;;;6.15;0.90;;;15.20;54.40;;;;;;5020315;28;20037;-80
2022/04/01 13:20:17;;;;;;;5.20;0.40;;;15.30;54.40;;;;;;5018154;28;20097;-78
2022/04/01 13:22:44;;;;;;;5.88;0.80;;;15.50;54.60;;;;;;5000978;28;20117;-79